Time;durP1;ratioP1;P1;durP2;ratioP2;P2;SDS_P1;SDS_P2;PMS_P1;PMS_P2;Temp;Humidity;BMP_temperature;BMP_pressure;BME280_temperature;BME280_humidity;BME280_pressure;Samples;Min_cycle;Max_cycle;Signal;HPM_P1;HPM_P2
2021/05/31 00:01:28;;;;;;;0.52;0.50;;;;;;;-148.58;100.00;55229.56;5035382;28;20032;-57
2021/05/31 00:03:54;;;;;;;2.78;0.43;;;;;;;-148.58;100.00;55229.56;5035266;28;20044;-56
2021/05/31 00:06:20;;;;;;;1.38;0.43;;;;;;;-148.58;100.00;55229.56;5035502;28;20465;-56
2021/05/31 00:08:45;;;;;;;1.95;0.60;;;;;;;-148.58;100.00;55229.56;5035065;28;20034;-58
2021/05/31 00:11:10;;;;;;;1.13;0.50;;;;;;;-148.58;100.00;55229.56;5035401;28;20040;-57
2021/05/31 00:13:36;;;;;;;0.77;0.77;;;;;;;-148.58;100.00;55229.56;5034493;28;20014;-56
2021/05/31 00:16:01;;;;;;;1.58;0.57;;;;;;;-148.58;100.00;55229.56;5035531;28;20144;-56
2021/05/31 00:18:27;;;;;;;1.95;0.75;;;;;;;-148.58;100.00;55229.56;5035108;28;20056;-56
2021/05/31 00:20:52;;;;;;;1.80;0.68;;;;;;;-148.58;100.00;55229.56;5035239;28;20028;-57
2021/05/31 00:23:19;;;;;;;1.02;0.40;;;;;;;-148.58;100.00;55229.56;5034272;28;20050;-56
2021/05/31 00:25:44;;;;;;;2.60;0.75;;;;;;;-148.58;100.00;55229.56;5034508;28;20022;-56
2021/05/31 00:28:10;;;;;;;1.05;0.60;;;;;;;-148.58;100.00;55229.56;5035056;28;20396;-56
2021/05/31 00:30:36;;;;;;;0.98;0.70;;;;;;;-148.58;100.00;55229.56;5034719;28;20469;-57
2021/05/31 00:33:01;;;;;;;1.58;0.80;;;;;;;-148.58;100.00;55229.56;5034912;28;20036;-56
2021/05/31 00:35:26;;;;;;;1.40;0.52;;;;;;;-148.58;100.00;55229.56;5034771;28;20021;-56
2021/05/31 00:37:55;;;;;;;2.92;0.70;;;;;;;-148.58;100.00;55229.56;5034669;28;20154;-57
2021/05/31 00:40:22;;;;;;;1.20;0.73;;;;;;;-148.58;100.00;55229.56;5034818;28;20032;-57
2021/05/31 00:42:47;;;;;;;0.90;0.52;;;;;;;-148.58;100.00;55229.56;5033246;28;20128;-56
2021/05/31 00:45:13;;;;;;;0.65;0.50;;;;;;;-148.58;100.00;55229.56;5034150;28;20388;-56
2021/05/31 00:47:38;;;;;;;1.13;0.52;;;;;;;-148.58;100.00;55229.56;5034434;28;20037;-58
2021/05/31 00:50:05;;;;;;;1.10;0.45;;;;;;;-148.58;100.00;55229.56;5034331;28;20385;-56
2021/05/31 00:52:30;;;;;;;1.50;0.63;;;;;;;-148.58;100.00;55229.56;5034387;28;20037;-56
2021/05/31 00:54:55;;;;;;;1.23;0.52;;;;;;;-148.58;100.00;55229.56;5034409;28;20040;-57
2021/05/31 00:57:21;;;;;;;1.05;0.40;;;;;;;-148.58;100.00;55229.56;5034488;28;20381;-56
2021/05/31 00:59:46;;;;;;;1.30;0.63;;;;;;;-148.58;100.00;55229.56;5034238;28;20029;-57
2021/05/31 01:02:12;;;;;;;1.83;0.63;;;;;;;-148.58;100.00;55229.56;5034328;28;20075;-56
2021/05/31 01:04:37;;;;;;;1.75;0.55;;;;;;;-148.58;100.00;55229.56;5034128;28;20025;-56
2021/05/31 01:07:27;;;;;;;1.85;0.50;;;;;;;-148.58;100.00;55229.56;5032830;28;20041;-57
2021/05/31 01:10:00;;;;;;;0.70;0.50;;;;;;;-148.58;100.00;55229.56;5034367;28;20030;-56
2021/05/31 01:12:31;;;;;;;2.55;0.52;;;;;;;-148.58;100.00;55229.56;5034140;28;20021;-56
2021/05/31 01:15:09;;;;;;;2.30;1.15;;;;;;;-148.58;100.00;55229.56;5033918;28;20029;-56
2021/05/31 01:17:48;;;;;;;3.22;0.65;;;;;;;-148.58;100.00;55229.56;5033846;28;20036;-56
2021/05/31 01:20:34;;;;;;;1.08;0.47;;;;;;;-148.58;100.00;55229.56;5034377;28;20037;-56
2021/05/31 01:23:03;;;;;;;1.58;0.57;;;;;;;-148.58;100.00;55229.56;5033385;28;20124;-56
2021/05/31 01:25:47;;;;;;;1.10;0.40;;;;;;;-148.58;100.00;55229.56;5033800;28;20497;-56
2021/05/31 01:28:25;;;;;;;1.05;0.50;;;;;;;-148.58;100.00;55229.56;5033916;28;20021;-56
2021/05/31 01:30:51;;;;;;;1.00;0.40;;;;;;;-148.58;100.00;55229.56;5033348;28;20114;-57
2021/05/31 01:33:20;;;;;;;1.58;0.57;;;;;;;-148.58;100.00;55229.56;5033835;28;20465;-56
2021/05/31 01:35:48;;;;;;;1.55;0.50;;;;;;;-148.58;100.00;55229.56;5033346;28;20029;-56
2021/05/31 01:38:17;;;;;;;1.10;0.40;;;;;;;-148.58;100.00;55229.56;5033658;28;20150;-56
2021/05/31 01:40:43;;;;;;;2.97;0.90;;;;;;;-148.58;100.00;55229.56;5033418;28;20116;-56
2021/05/31 01:43:10;;;;;;;1.00;0.60;;;;;;;-148.58;100.00;55229.56;5033796;28;20101;-56
2021/05/31 01:45:36;;;;;;;0.90;0.60;;;;;;;-148.58;100.00;55229.56;5033630;28;20022;-57
2021/05/31 01:48:02;;;;;;;2.65;0.70;;;;;;;-148.58;100.00;55229.56;5033548;28;20388;-56
2021/05/31 01:50:28;;;;;;;1.08;0.50;;;;;;;-148.58;100.00;55229.56;5033388;28;20025;-56
2021/05/31 01:52:54;;;;;;;1.85;0.50;;;;;;;-148.58;100.00;55229.56;5033188;28;20021;-56
2021/05/31 01:55:21;;;;;;;0.90;0.50;;;;;;;-148.58;100.00;55229.56;5033759;28;20087;-56
2021/05/31 01:57:47;;;;;;;1.85;0.65;;;;;;;-148.58;100.00;55229.56;5033413;28;20021;-56
2021/05/31 02:00:15;;;;;;;1.20;0.40;;;;;;;-148.58;100.00;55229.56;5032838;28;20451;-57
2021/05/31 02:02:41;;;;;;;1.80;0.43;;;;;;;-148.58;100.00;55229.56;5014772;28;20037;-56
2021/05/31 02:05:09;;;;;;;1.05;0.50;;;;;;;-148.58;100.00;55229.56;5032137;28;20372;-56
2021/05/31 02:07:38;;;;;;;1.55;0.65;;;;;;;-148.58;100.00;55229.56;5033151;28;20028;-56
2021/05/31 02:10:08;;;;;;;0.90;0.43;;;;;;;-148.58;100.00;55229.56;5033111;28;20017;-56
2021/05/31 02:12:43;;;;;;;0.98;0.43;;;;;;;-148.58;100.00;55229.56;5033002;28;20025;-56
2021/05/31 02:15:11;;;;;;;0.85;0.40;;;;;;;-148.58;100.00;55229.56;5032998;28;20021;-56
2021/05/31 02:17:45;;;;;;;1.50;0.80;;;;;;;-148.58;100.00;55229.56;5032795;28;20025;-57
2021/05/31 02:20:17;;;;;;;1.30;0.70;;;;;;;-148.58;100.00;55229.56;5032996;28;20500;-56
2021/05/31 02:22:47;;;;;;;2.25;0.70;;;;;;;-148.58;100.00;55229.56;5032539;28;20128;-56
2021/05/31 02:25:13;;;;;;;1.23;0.43;;;;;;;-148.58;100.00;55229.56;5032807;28;20025;-56
2021/05/31 02:27:39;;;;;;;2.78;0.70;;;;;;;-148.58;100.00;55229.56;5032668;28;20026;-57
2021/05/31 02:30:07;;;;;;;0.75;0.40;;;;;;;-148.58;100.00;55229.56;5032644;28;20040;-55
2021/05/31 02:32:32;;;;;;;2.80;0.57;;;;;;;-148.58;100.00;55229.56;5032621;28;20059;-56
2021/05/31 02:34:58;;;;;;;1.23;0.47;;;;;;;-148.58;100.00;55229.56;5032656;28;20049;-56
2021/05/31 02:37:35;;;;;;;1.10;0.50;;;;;;;-148.58;100.00;55229.56;5032723;28;20044;-56
2021/05/31 02:40:05;;;;;;;0.98;0.60;;;;;;;-148.58;100.00;55229.56;5032652;28;20040;-56
2021/05/31 02:42:46;;;;;;;1.38;0.40;;;;;;;-148.58;100.00;55229.56;5032631;28;20025;-57
2021/05/31 02:45:12;;;;;;;2.35;0.70;;;;;;;-148.58;100.00;55229.56;5032590;28;20393;-56
2021/05/31 02:47:38;;;;;;;0.65;0.45;;;;;;;-148.58;100.00;55229.56;5031906;28;20122;-56
2021/05/31 02:50:04;;;;;;;1.23;0.52;;;;;;;-148.58;100.00;55229.56;5032486;28;20516;-57
2021/05/31 02:52:30;;;;;;;1.77;0.60;;;;;;;-148.58;100.00;55229.56;5032293;28;20033;-57
2021/05/31 02:54:55;;;;;;;1.08;0.40;;;;;;;-148.58;100.00;55229.56;5032390;28;20078;-55
2021/05/31 02:57:20;;;;;;;0.65;0.43;;;;;;;-148.58;100.00;55229.56;5032519;28;20047;-56
2021/05/31 02:59:46;;;;;;;0.70;0.40;;;;;;;-148.58;100.00;55229.56;5032077;28;20029;-56
2021/05/31 03:02:11;;;;;;;1.13;0.30;;;;;;;-148.58;100.00;55229.56;5032424;28;20143;-56
2021/05/31 03:04:36;;;;;;;0.75;0.50;;;;;;;-148.58;100.00;55229.56;5032244;28;20033;-56
2021/05/31 03:07:02;;;;;;;0.80;0.40;;;;;;;-148.58;100.00;55229.56;5032320;28;20342;-56
2021/05/31 03:09:27;;;;;;;0.90;0.50;;;;;;;-148.58;100.00;55229.56;5032699;28;20021;-57
2021/05/31 03:11:53;;;;;;;1.85;0.73;;;;;;;-148.58;100.00;55229.56;5032263;28;20035;-56
2021/05/31 03:14:18;;;;;;;0.40;0.32;;;;;;;-148.58;100.00;55229.56;5032411;28;20082;-56
2021/05/31 03:16:43;;;;;;;0.75;0.40;;;;;;;-148.58;100.00;55229.56;5032122;28;20021;-56
2021/05/31 03:19:08;;;;;;;0.70;0.38;;;;;;;-148.58;100.00;55229.56;5032294;28;20033;-56
2021/05/31 03:21:34;;;;;;;1.20;0.52;;;;;;;-148.58;100.00;55229.56;5031966;28;20068;-56
2021/05/31 03:23:59;;;;;;;1.10;0.50;;;;;;;-148.58;100.00;55229.56;5032157;28;20026;-56
2021/05/31 03:26:24;;;;;;;0.40;0.20;;;;;;;-148.58;100.00;55229.56;5032205;28;20022;-56
2021/05/31 03:28:50;;;;;;;1.35;0.47;;;;;;;-148.58;100.00;55229.56;5031832;28;20445;-56
2021/05/31 03:31:16;;;;;;;4.05;1.17;;;;;;;-148.58;100.00;55229.56;5031921;28;20059;-56
2021/05/31 03:33:41;;;;;;;0.93;0.43;;;;;;;-148.58;100.00;55229.56;5031560;28;20377;-56
2021/05/31 03:36:06;;;;;;;1.67;0.50;;;;;;;-148.58;100.00;55229.56;5032201;28;20470;-56
2021/05/31 03:38:32;;;;;;;1.17;0.50;;;;;;;-148.58;100.00;55229.56;5031970;28;20041;-56
2021/05/31 03:40:57;;;;;;;0.88;0.38;;;;;;;-148.58;100.00;55229.56;5031984;28;20045;-56
2021/05/31 03:43:22;;;;;;;1.00;0.35;;;;;;;-148.58;100.00;55229.56;5032113;28;20346;-56
2021/05/31 03:45:47;;;;;;;1.25;0.52;;;;;;;-148.58;100.00;55229.56;5032205;28;20029;-57
2021/05/31 03:48:13;;;;;;;1.52;0.70;;;;;;;-148.58;100.00;55229.56;5030890;28;20017;-56
2021/05/31 03:50:39;;;;;;;0.88;0.55;;;;;;;-148.58;100.00;55229.56;5031871;28;20480;-56
2021/05/31 03:53:04;;;;;;;2.55;0.80;;;;;;;-148.58;100.00;55229.56;5031982;28;20032;-56
2021/05/31 03:55:30;;;;;;;1.80;0.52;;;;;;;-148.58;100.00;55229.56;5031930;28;20030;-57
2021/05/31 03:57:56;;;;;;;3.40;0.82;;;;;;;-148.58;100.00;55229.56;5031950;28;20025;-56
2021/05/31 04:00:21;;;;;;;2.53;0.82;;;;;;;-148.58;100.00;55229.56;5034418;28;20033;-56
2021/05/31 04:02:48;;;;;;;1.33;0.50;;;;;;;-148.58;100.00;55229.56;5035083;28;20030;-56
2021/05/31 04:05:15;;;;;;;2.15;0.88;;;;;;;-148.58;100.00;55229.56;5035476;28;20076;-56
2021/05/31 04:13:09;;;;;;;2.63;0.73;;;;;;;-148.58;100.00;55229.56;5035592;28;20031;-56
2021/05/31 04:15:34;;;;;;;1.48;0.28;;;;;;;-148.58;100.00;55229.56;5035030;28;20014;-56
2021/05/31 04:17:59;;;;;;;1.05;0.40;;;;;;;-148.58;100.00;55229.56;5035268;28;20389;-56
2021/05/31 04:20:25;;;;;;;0.63;0.38;;;;;;;-148.58;100.00;55229.56;5035447;28;20035;-56
2021/05/31 04:22:50;;;;;;;1.58;0.80;;;;;;;-148.58;100.00;55229.56;5034757;28;20056;-57
2021/05/31 04:25:16;;;;;;;1.17;0.57;;;;;;;-148.58;100.00;55229.56;5035279;28;20026;-57
2021/05/31 04:27:41;;;;;;;1.45;0.55;;;;;;;-148.58;100.00;55229.56;5034890;28;20068;-57
2021/05/31 04:30:07;;;;;;;2.00;0.77;;;;;;;-148.58;100.00;55229.56;5033445;28;20025;-57
2021/05/31 04:32:33;;;;;;;2.30;0.60;;;;;;;-148.58;100.00;55229.56;5035119;28;20033;-56
2021/05/31 04:34:58;;;;;;;1.60;0.82;;;;;;;-148.58;100.00;55229.56;5034825;28;20033;-56
2021/05/31 04:37:25;;;;;;;0.73;0.52;;;;;;;-148.58;100.00;55229.56;5035138;28;20032;-56
2021/05/31 04:39:51;;;;;;;1.30;0.63;;;;;;;-148.58;100.00;55229.56;5034905;28;20025;-56
2021/05/31 04:42:16;;;;;;;0.75;0.50;;;;;;;-148.58;100.00;55229.56;5033828;28;20092;-56
2021/05/31 04:44:42;;;;;;;1.08;0.57;;;;;;;-148.58;100.00;55229.56;5021288;28;20053;-57
2021/05/31 04:47:08;;;;;;;0.75;0.43;;;;;;;-148.58;100.00;55229.56;5015415;28;20030;-57
2021/05/31 04:49:33;;;;;;;1.83;0.70;;;;;;;-148.58;100.00;55229.56;5034535;28;20025;-56
2021/05/31 04:51:59;;;;;;;1.60;0.40;;;;;;;-148.58;100.00;55229.56;5034481;28;20465;-56
2021/05/31 04:54:24;;;;;;;1.00;0.25;;;;;;;-148.58;100.00;55229.56;5034529;28;20033;-57
2021/05/31 04:56:50;;;;;;;1.48;0.40;;;;;;;-148.58;100.00;55229.56;5034542;28;20070;-56
2021/05/31 04:59:15;;;;;;;1.33;0.40;;;;;;;-148.58;100.00;55229.56;5034278;28;20017;-56
2021/05/31 05:01:40;;;;;;;1.95;0.68;;;;;;;-148.58;100.00;55229.56;5034235;28;20476;-56
2021/05/31 05:04:06;;;;;;;1.70;0.50;;;;;;;-148.58;100.00;55229.56;5034260;28;20025;-56
2021/05/31 05:06:32;;;;;;;1.88;0.47;;;;;;;-148.58;100.00;55229.56;5034178;28;20025;-56
2021/05/31 05:08:58;;;;;;;0.85;0.40;;;;;;;-148.58;100.00;55229.56;5034157;28;20025;-56
2021/05/31 05:11:23;;;;;;;0.68;0.45;;;;;;;-148.58;100.00;55229.56;5033810;28;20428;-57
2021/05/31 05:13:50;;;;;;;2.42;0.60;;;;;;;-148.58;100.00;55229.56;5033961;28;20029;-57
2021/05/31 05:16:17;;;;;;;0.85;0.45;;;;;;;-148.58;100.00;55229.56;5034161;28;20053;-56
2021/05/31 05:18:47;;;;;;;1.23;0.45;;;;;;;-148.58;100.00;55229.56;5033926;28;20031;-56
2021/05/31 05:21:16;;;;;;;2.53;0.82;;;;;;;-148.58;100.00;55229.56;5033988;28;20064;-57
2021/05/31 05:23:41;;;;;;;0.55;0.30;;;;;;;-148.58;100.00;55229.56;5033749;28;20049;-57
2021/05/31 05:26:06;;;;;;;0.82;0.25;;;;;;;-148.58;100.00;55229.56;5033857;28;20052;-56
2021/05/31 05:28:32;;;;;;;1.17;0.30;;;;;;;-148.58;100.00;55229.56;5033473;28;20025;-57
2021/05/31 05:31:02;;;;;;;1.65;0.40;;;;;;;-148.58;100.00;55229.56;5033914;28;20033;-57
2021/05/31 05:33:28;;;;;;;0.90;0.50;;;;;;;-148.58;100.00;55229.56;5033473;28;20024;-57
2021/05/31 05:35:57;;;;;;;1.52;0.50;;;;;;;-148.58;100.00;55229.56;5033691;28;20033;-56
2021/05/31 05:48:22;;;;;;;0.90;0.30;;;;;;;-148.58;100.00;55229.56;5033845;28;20021;-57
2021/05/31 05:50:48;;;;;;;0.25;0.20;;;;;;;-148.58;100.00;55229.56;5033119;28;20078;-57
2021/05/31 05:53:13;;;;;;;0.70;0.35;;;;;;;-148.58;100.00;55229.56;5033525;28;20075;-57
2021/05/31 05:55:39;;;;;;;1.20;0.30;;;;;;;-148.58;100.00;55229.56;5033234;28;20033;-56
2021/05/31 05:58:05;;;;;;;0.57;0.40;;;;;;;-148.58;100.00;55229.56;5032006;28;20087;-57
2021/05/31 06:00:32;;;;;;;0.50;0.20;;;;;;;-148.58;100.00;55229.56;5032638;28;20021;-56
2021/05/31 06:02:58;;;;;;;0.28;0.15;;;;;;;-148.58;100.00;55229.56;5033345;28;20104;-56
2021/05/31 06:05:23;;;;;;;0.75;0.30;;;;;;;-148.58;100.00;55229.56;5032335;28;20043;-57
2021/05/31 06:07:49;;;;;;;1.02;0.25;;;;;;;-148.58;100.00;55229.56;5033884;28;20037;-56
2021/05/31 06:10:15;;;;;;;0.43;0.30;;;;;;;-148.58;100.00;55229.56;5032766;28;20028;-56
2021/05/31 06:12:41;;;;;;;0.45;0.20;;;;;;;-148.58;100.00;55229.56;5031611;28;20451;-56
2021/05/31 06:15:09;;;;;;;0.30;0.20;;;;;;;-148.58;100.00;55229.56;5030848;28;20099;-57
2021/05/31 06:17:34;;;;;;;0.95;0.40;;;;;;;-148.58;100.00;55229.56;5024598;28;20052;-58
2021/05/31 06:20:00;;;;;;;1.00;0.30;;;;;;;-148.58;100.00;55229.56;5016835;28;20096;-56
2021/05/31 06:22:32;;;;;;;1.80;0.30;;;;;;;-148.58;100.00;55229.56;5029621;28;20045;-56
2021/05/31 06:24:57;;;;;;;0.80;0.40;;;;;;;-148.58;100.00;55229.56;5025875;28;20112;-56
2021/05/31 06:27:23;;;;;;;0.70;0.10;;;;;;;-148.58;100.00;55229.56;5018676;28;20164;-56
2021/05/31 06:29:48;;;;;;;0.90;0.30;;;;;;;-148.58;100.00;55229.56;5025314;28;20030;-57
2021/05/31 06:32:13;;;;;;;1.35;0.30;;;;;;;-148.58;100.00;55229.56;5026119;28;20029;-57
2021/05/31 06:34:39;;;;;;;1.67;0.50;;;;;;;-148.58;100.00;55229.56;5019391;28;20029;-56
2021/05/31 06:37:04;;;;;;;1.23;0.30;;;;;;;-148.58;100.00;55229.56;5022134;28;20028;-57
2021/05/31 06:39:29;;;;;;;1.13;0.40;;;;;;;-148.58;100.00;55229.56;5031925;28;20032;-56
2021/05/31 06:41:55;;;;;;;0.73;0.20;;;;;;;-148.58;100.00;55229.56;5032782;28;20492;-56
2021/05/31 06:44:20;;;;;;;2.45;0.60;;;;;;;-148.58;100.00;55229.56;5032998;28;20411;-56
2021/05/31 06:46:45;;;;;;;2.85;0.65;;;;;;;-148.58;100.00;55229.56;5033205;28;20029;-56
2021/05/31 06:49:11;;;;;;;0.38;0.25;;;;;;;-148.58;100.00;55229.56;5033400;28;20045;-56
2021/05/31 06:51:37;;;;;;;1.10;0.40;;;;;;;-148.58;100.00;55229.56;5032775;28;20049;-56
2021/05/31 06:54:02;;;;;;;3.05;0.40;;;;;;;-148.58;100.00;55229.56;5021488;28;20053;-56
2021/05/31 06:56:28;;;;;;;1.48;0.40;;;;;;;-148.58;100.00;55229.56;5031353;28;20022;-56
2021/05/31 06:58:53;;;;;;;0.25;0.20;;;;;;;-148.58;100.00;55229.56;5025304;28;20029;-56
2021/05/31 07:01:19;;;;;;;2.58;0.28;;;;;;;-148.58;100.00;55229.56;5023649;28;20472;-56
2021/05/31 07:03:44;;;;;;;1.77;0.50;;;;;;;-148.58;100.00;55229.56;5026069;28;20112;-56
2021/05/31 07:06:10;;;;;;;0.95;0.45;;;;;;;-148.58;100.00;55229.56;5021661;28;20041;-57
2021/05/31 07:08:35;;;;;;;1.13;0.30;;;;;;;-148.58;100.00;55229.56;5028743;28;20026;-56
2021/05/31 07:11:09;;;;;;;0.75;0.15;;;;;;;-148.58;100.00;55229.56;5027031;28;20087;-57
2021/05/31 07:13:34;;;;;;;1.30;0.60;;;;;;;-148.58;100.00;55229.56;5024471;28;20388;-57
2021/05/31 07:15:59;;;;;;;1.42;0.60;;;;;;;-148.58;100.00;55229.56;5022026;28;20267;-56
2021/05/31 07:18:25;;;;;;;1.67;0.68;;;;;;;-148.58;100.00;55229.56;5017801;28;20030;-57
2021/05/31 07:20:52;;;;;;;1.23;0.40;;;;;;;-148.58;100.00;55229.56;5019158;28;20030;-56
2021/05/31 07:23:17;;;;;;;3.08;0.30;;;;;;;-148.58;100.00;55229.56;5017039;28;20069;-56
2021/05/31 07:25:43;;;;;;;1.85;0.40;;;;;;;-148.58;100.00;55229.56;5015369;28;20510;-56
2021/05/31 07:28:08;;;;;;;1.10;0.32;;;;;;;-148.58;100.00;55229.56;5025409;28;20488;-56
2021/05/31 07:30:34;;;;;;;1.00;0.43;;;;;;;-148.58;100.00;55229.56;5013451;28;20468;-56
2021/05/31 07:33:00;;;;;;;1.90;0.65;;;;;;;-148.58;100.00;55229.56;5018762;28;20403;-57
2021/05/31 07:35:25;;;;;;;1.13;0.38;;;;;;;-148.58;100.00;55229.56;5033447;28;20013;-59
2021/05/31 07:37:50;;;;;;;1.15;0.30;;;;;;;-148.58;100.00;55229.56;5027152;28;20531;-60
2021/05/31 07:40:17;;;;;;;1.38;0.50;;;;;;;-148.58;100.00;55229.56;5025454;28;20459;-60
2021/05/31 07:42:44;;;;;;;1.10;0.40;;;;;;;-148.58;100.00;55229.56;5026912;28;20462;-60
2021/05/31 07:45:12;;;;;;;2.38;0.55;;;;;;;-148.58;100.00;55229.56;5025351;28;20033;-60
2021/05/31 07:47:37;;;;;;;1.30;0.40;;;;;;;-148.58;100.00;55229.56;5020195;28;20471;-61
2021/05/31 07:50:04;;;;;;;1.08;0.35;;;;;;;-148.58;100.00;55229.56;5033148;28;20067;-60
2021/05/31 07:52:29;;;;;;;2.10;0.70;;;;;;;-148.58;100.00;55229.56;5020691;28;20029;-61
2021/05/31 07:54:55;;;;;;;0.95;0.50;;;;;;;-148.58;100.00;55229.56;5025443;28;20022;-61
2021/05/31 07:57:22;;;;;;;1.38;0.50;;;;;;;-148.58;100.00;55229.56;5027118;28;20036;-61
2021/05/31 07:59:49;;;;;;;2.25;0.40;;;;;;;-148.58;100.00;55229.56;5021296;28;20021;-61
2021/05/31 08:02:14;;;;;;;1.25;0.35;;;;;;;-148.58;100.00;55229.56;5019778;28;20051;-60
2021/05/31 08:04:41;;;;;;;1.50;0.40;;;;;;;-148.58;100.00;55229.56;5025913;28;20108;-59
2021/05/31 08:07:08;;;;;;;1.95;0.40;;;;;;;-148.58;100.00;55229.56;5026600;28;20124;-57
2021/05/31 08:09:34;;;;;;;1.70;0.50;;;;;;;-148.58;100.00;55229.56;5015569;28;20462;-57
2021/05/31 08:11:59;;;;;;;1.25;0.30;;;;;;;-148.58;100.00;55229.56;5018708;28;20108;-60
2021/05/31 08:14:25;;;;;;;1.45;0.40;;;;;;;-148.58;100.00;55229.56;5028121;28;20025;-60
2021/05/31 08:16:51;;;;;;;0.63;0.25;;;;;;;-148.58;100.00;55229.56;5024346;28;20041;-60
2021/05/31 08:19:19;;;;;;;1.67;0.40;;;;;;;-148.58;100.00;55229.56;5031318;28;20056;-60
2021/05/31 08:21:45;;;;;;;2.15;0.50;;;;;;;-148.58;100.00;55229.56;5027545;28;20038;-60
2021/05/31 08:24:10;;;;;;;0.68;0.17;;;;;;;-148.58;100.00;55229.56;5015569;28;20178;-60
2021/05/31 08:26:37;;;;;;;0.68;0.25;;;;;;;-148.58;100.00;55229.56;5018558;28;20095;-61
2021/05/31 08:29:03;;;;;;;1.10;0.40;;;;;;;-148.58;100.00;55229.56;5023219;28;20036;-60
2021/05/31 08:31:28;;;;;;;2.22;0.38;;;;;;;-148.58;100.00;55229.56;5019672;28;20383;-60
2021/05/31 08:33:53;;;;;;;0.85;0.20;;;;;;;-148.58;100.00;55229.56;5017950;28;20026;-60
2021/05/31 08:36:20;;;;;;;1.10;0.40;;;;;;;-148.58;100.00;55229.56;5015439;28;20025;-61
2021/05/31 08:38:46;;;;;;;0.13;0.10;;;;;;;-148.58;100.00;55229.56;5015360;28;20025;-61
2021/05/31 08:41:11;;;;;;;0.82;0.28;;;;;;;-148.58;100.00;55229.56;5022868;28;20039;-60
2021/05/31 08:43:37;;;;;;;0.32;0.15;;;;;;;-148.58;100.00;55229.56;5026115;28;20021;-60
2021/05/31 08:46:02;;;;;;;2.47;0.40;;;;;;;-148.58;100.00;55229.56;5032260;28;20029;-60
2021/05/31 08:48:28;;;;;;;0.85;0.22;;;;;;;-148.58;100.00;55229.56;5031381;28;20025;-61
2021/05/31 08:50:55;;;;;;;0.40;0.10;;;;;;;-148.58;100.00;55229.56;5049213;28;20034;-60
2021/05/31 08:53:20;;;;;;;1.52;0.60;;;;;;;-148.58;100.00;55229.56;5033848;28;20375;-60
2021/05/31 08:55:47;;;;;;;1.58;0.50;;;;;;;-148.58;100.00;55229.56;5033616;28;20467;-60
2021/05/31 08:58:12;;;;;;;1.45;0.40;;;;;;;-148.58;100.00;55229.56;5034100;28;20026;-60
2021/05/31 09:00:38;;;;;;;1.13;0.38;;;;;;;-148.58;100.00;55229.56;5031598;28;20032;-61
2021/05/31 09:03:09;;;;;;;0.55;0.25;;;;;;;-148.58;100.00;55229.56;5015139;28;20030;-61
2021/05/31 09:05:39;;;;;;;2.25;0.52;;;;;;;-148.58;100.00;55229.56;5014977;28;20029;-60
2021/05/31 09:08:07;;;;;;;0.20;0.10;;;;;;;-148.58;100.00;55229.56;5018121;28;20057;-60
2021/05/31 09:10:39;;;;;;;0.90;0.35;;;;;;;-148.58;100.00;55229.56;5017344;28;20484;-61
2021/05/31 09:13:05;;;;;;;0.10;0.10;;;;;;;-148.58;100.00;55229.56;5023693;28;20040;-61
2021/05/31 09:15:31;;;;;;;1.17;0.30;;;;;;;-148.58;100.00;55229.56;5025265;28;20022;-61
2021/05/31 09:17:56;;;;;;;1.00;0.10;;;;;;;-148.58;100.00;55229.56;5017687;28;20025;-61
2021/05/31 09:20:24;;;;;;;0.55;0.20;;;;;;;-148.58;100.00;55229.56;5039510;28;20021;-61
2021/05/31 09:22:52;;;;;;;2.97;0.55;;;;;;;-148.58;100.00;55229.56;5039140;28;20049;-61
2021/05/31 09:25:33;;;;;;;0.93;0.35;;;;;;;-148.58;100.00;55229.56;5033461;28;20033;-61
2021/05/31 09:28:02;;;;;;;0.40;0.22;;;;;;;-148.58;100.00;55229.56;5032922;28;20108;-61
2021/05/31 09:30:38;;;;;;;1.00;0.40;;;;;;;-148.58;100.00;55229.56;5028236;28;20021;-61
2021/05/31 09:33:07;;;;;;;0.50;0.20;;;;;;;-148.58;100.00;55229.56;5032272;28;20358;-62
2021/05/31 09:35:32;;;;;;;1.00;0.22;;;;;;;-148.58;100.00;55229.56;5047662;28;20017;-61
2021/05/31 09:38:01;;;;;;;0.73;0.20;;;;;;;-148.58;100.00;55229.56;5032067;28;20591;-61
2021/05/31 09:40:27;;;;;;;0.60;0.20;;;;;;;-148.58;100.00;55229.56;5030661;28;20171;-60
2021/05/31 09:42:56;;;;;;;0.60;0.30;;;;;;;-148.58;100.00;55229.56;5012719;28;20454;-60
2021/05/31 09:45:22;;;;;;;0.13;0.13;;;;;;;-148.58;100.00;55229.56;5019528;28;20037;-60
2021/05/31 09:47:47;;;;;;;0.38;0.25;;;;;;;-148.58;100.00;55229.56;5024530;28;20021;-61
2021/05/31 09:50:28;;;;;;;1.75;0.22;;;;;;;-148.58;100.00;55229.56;5018963;28;20051;-60
2021/05/31 09:53:14;;;;;;;0.40;0.20;;;;;;;-148.58;100.00;55229.56;5021393;28;20032;-61
2021/05/31 09:55:44;;;;;;;1.60;0.45;;;;;;;-148.58;100.00;55229.56;5022665;28;20152;-60
2021/05/31 09:58:12;;;;;;;0.68;0.28;;;;;;;-148.58;100.00;55229.56;5025877;28;20400;-60
2021/05/31 10:00:46;;;;;;;2.17;0.90;;;;;;;-148.58;100.00;55229.56;5028168;28;20110;-62
2021/05/31 10:11:00;;;;;;;2.63;2.03;;;;;;;-148.58;100.00;55229.56;5028063;28;20427;-59
2021/05/31 10:13:27;;;;;;;3.03;2.30;;;;;;;-148.58;100.00;55229.56;5031631;28;20531;-60
2021/05/31 10:15:52;;;;;;;2.88;2.35;;;;;;;-148.58;100.00;55229.56;5024566;28;20035;-60
2021/05/31 10:18:18;;;;;;;3.25;2.40;;;;;;;-148.58;100.00;55229.56;5030053;28;20361;-60
2021/05/31 10:20:45;;;;;;;4.18;2.72;;;;;;;-148.58;100.00;55229.56;5030717;28;20467;-60
2021/05/31 10:23:12;;;;;;;2.50;2.30;;;;;;;-148.58;100.00;55229.56;5031376;28;20049;-60
2021/05/31 10:25:43;;;;;;;3.80;2.55;;;;;;;-148.58;100.00;55229.56;5031921;28;20032;-60
2021/05/31 10:28:14;;;;;;;4.10;2.70;;;;;;;-148.58;100.00;55229.56;5031978;28;20051;-60
2021/05/31 10:30:44;;;;;;;3.53;2.58;;;;;;;-148.58;100.00;55229.56;5031698;28;20040;-60
2021/05/31 10:33:14;;;;;;;3.22;2.55;;;;;;;-148.58;100.00;55229.56;5032458;28;20273;-60
2021/05/31 10:35:40;;;;;;;3.08;2.53;;;;;;;-148.58;100.00;55229.56;5032105;28;20460;-60
2021/05/31 10:38:11;;;;;;;3.10;2.72;;;;;;;-148.58;100.00;55229.56;5032401;28;20124;-60
2021/05/31 10:40:42;;;;;;;2.90;2.28;;;;;;;-148.58;100.00;55229.56;5032445;28;20025;-60
2021/05/31 10:43:10;;;;;;;3.17;2.72;;;;;;;-148.58;100.00;55229.56;5032632;28;20047;-59
2021/05/31 10:45:37;;;;;;;2.78;2.58;;;;;;;-148.58;100.00;55229.56;5032565;28;20021;-60
2021/05/31 10:48:15;;;;;;;2.53;2.22;;;;;;;-148.58;100.00;55229.56;5032541;28;20072;-60
2021/05/31 10:50:52;;;;;;;3.47;2.03;;;;;;;-148.58;100.00;55229.56;5032293;28;20045;-60
2021/05/31 10:53:25;;;;;;;3.65;2.05;;;;;;;-148.58;100.00;55229.56;5032914;28;20044;-61
2021/05/31 10:55:53;;;;;;;2.42;2.03;;;;;;;-148.58;100.00;55229.56;5032337;28;20013;-60
2021/05/31 10:58:21;;;;;;;2.35;1.98;;;;;;;-148.58;100.00;55229.56;5032581;28;20044;-60
2021/05/31 11:00:55;;;;;;;2.50;1.80;;;;;;;-148.58;100.00;55229.56;5030849;28;20032;-60
2021/05/31 11:03:21;;;;;;;2.58;1.92;;;;;;;-148.58;100.00;55229.56;5028532;28;20523;-60
2021/05/31 11:05:47;;;;;;;1.60;1.50;;;;;;;-148.58;100.00;55229.56;5016309;28;20026;-60
2021/05/31 11:08:23;;;;;;;2.17;1.65;;;;;;;-148.58;100.00;55229.56;5020929;28;20375;-60
2021/05/31 11:10:54;;;;;;;1.92;1.52;;;;;;;-148.58;100.00;55229.56;5037469;28;20372;-59
2021/05/31 11:13:19;;;;;;;2.30;1.52;;;;;;;-148.58;100.00;55229.56;5030241;28;20123;-60
2021/05/31 11:15:45;;;;;;;2.45;1.40;;;;;;;-148.58;100.00;55229.56;5026521;28;20168;-60
2021/05/31 11:18:22;;;;;;;1.33;1.23;;;;;;;-148.58;100.00;55229.56;5028355;28;20083;-61
2021/05/31 11:20:47;;;;;;;1.45;1.30;;;;;;;-148.58;100.00;55229.56;5023610;28;20033;-61
2021/05/31 11:23:12;;;;;;;2.58;1.52;;;;;;;-148.58;100.00;55229.56;5032756;28;20049;-60
2021/05/31 11:25:38;;;;;;;1.73;1.08;;;;;;;-148.58;100.00;55229.56;5033741;28;20025;-61
2021/05/31 11:28:05;;;;;;;2.17;1.20;;;;;;;-148.58;100.00;55229.56;5034303;28;20460;-61
2021/05/31 11:30:32;;;;;;;1.08;1.02;;;;;;;-148.58;100.00;55229.56;5033895;28;20045;-60
2021/05/31 11:33:01;;;;;;;1.35;1.08;;;;;;;-148.58;100.00;55229.56;5033765;28;20025;-60